JAC AT72 at Kagoshima on Nov 7th 2022, passenger injured on landing

Last Update: November 24, 2022 / 20:36:07 GMT/Zulu time

Bookmark this article
Incident Facts

Date of incident
Nov 7, 2022

Classification
Accident

Flight number
JL-3760

Destination
Kagoshima, Japan

Aircraft Registration
JA06JC

Aircraft Type
ATR ATR-72-200

ICAO Type Designator
AT72

Airport ICAO Code
RJFK

A JAC Japan Air Commuter Avions de Transport Regional ATR-72-212A on behalf of JAL Japan Airlines, registration JA06JC performing flight JL-3760 from Nakatane to Kagoshima (Japan), landed on Kagoshima's runway 34 causing a serious injury to a passenger.

Japan's TSB reported a passenger received second lumbar vertebra compression fracture when the aircraft landed at Kagoshima about 20 minutes after departing Nakatane. The occurrence was rated an accident and is being investigated by the JTSB.

Metars:
RJFK 070200Z 03003KT 340V100 9999 FEW025 BKN035 18/12 Q1021=
RJFK 070100Z 06003KT 9999 FEW025 BKN030 17/11 Q1022=
RJFK 070000Z 36004KT 9999 FEW035 BKN/// 13/10 Q1021=
RJFK 062300Z 01004KT 9999 FEW025 BKN035 BKN/// 12/09 Q1021=
RJFK 062200Z 01006KT 9999 FEW030 SCT050 BKN/// 10/08 Q1021=
RJFK 062100Z 36003KT 330V030 9999 FEW030 SCT060 BKN/// 11/08 Q1020=
Incident Facts

Date of incident
Nov 7, 2022

Classification
Accident

Flight number
JL-3760

Destination
Kagoshima, Japan

Aircraft Registration
JA06JC

Aircraft Type
ATR ATR-72-200

ICAO Type Designator
AT72

Airport ICAO Code
RJFK

This article is published under license from Avherald.com. © of text by Avherald.com.
Article source

You can read 2 more free articles without a subscription.

Subscribe now and continue reading without any limits!

Are you a subscriber? Login
Subscribe

Read unlimited articles and receive our daily update briefing. Gain better insights into what is happening in commercial aviation safety.

Free newsletter

Want to know more and stay ahead? Get our free weekly newsletter and join 5468 existing subscribers.

By subscribing, you accept our terms and conditions and confirm that you've read our privacy policy.

Send tip

Support AeroInside by sending a small tip amount.

Related articles

Newest articles

Subscribe today

Are you researching aviation incidents? Get access to AeroInside Insights, unlimited read access and receive the daily newsletter.

Pick your plan and subscribe

Partner

Blockaviation logo

A new way to document and demonstrate airworthiness compliance and aircraft value. Find out more.

Virtual Speech logo

ELITE Simulation Solutions is a leading global provider of Flight Simulation Training Devices, IFR training software as well as flight controls and related services. Find out more.

Get updates

Never miss an article from AeroInside. Subscribe to our free weekly newsletter and join 5468 existing subscribers.

By subscribing, you accept our terms and conditions and that you've read our privacy policy.

AeroInside Blog
Popular aircraft
Airbus A320
Boeing 737-800
Boeing 737-800 MAX
Popular airlines
American Airlines
United
Delta
Air Canada
Lufthansa
British Airways